sensor_id;sensor_type;location;lat;lon;timestamp;temperature;humidity
64858;SHT30;51335;51.148;6.950;2022-12-01T00:00:23;6.37;97.41
64858;SHT30;51335;51.148;6.950;2022-12-01T00:00:53;6.37;97.53
64858;SHT30;51335;51.148;6.950;2022-12-01T00:01:24;6.45;97.35
64858;SHT30;51335;51.148;6.950;2022-12-01T00:01:54;6.42;97.11
64858;SHT30;51335;51.148;6.950;2022-12-01T00:02:24;6.37;97.34
64858;SHT30;51335;51.148;6.950;2022-12-01T00:02:57;6.45;97.30
64858;SHT30;51335;51.148;6.950;2022-12-01T00:03:31;6.47;97.21
64858;SHT30;51335;51.148;6.950;2022-12-01T00:04:02;6.40;97.27
64858;SHT30;51335;51.148;6.950;2022-12-01T00:04:32;6.42;97.37
64858;SHT30;51335;51.148;6.950;2022-12-01T00:05:03;6.48;97.39
64858;SHT30;51335;51.148;6.950;2022-12-01T00:05:33;6.54;97.26
64858;SHT30;51335;51.148;6.950;2022-12-01T00:06:24;6.51;97.03
64858;SHT30;51335;51.148;6.950;2022-12-01T00:06:54;6.52;97.09
64858;SHT30;51335;51.148;6.950;2022-12-01T00:07:24;6.47;97.02
64858;SHT30;51335;51.148;6.950;2022-12-01T00:07:55;6.38;97.17
64858;SHT30;51335;51.148;6.950;2022-12-01T00:08:26;6.41;97.44
64858;SHT30;51335;51.148;6.950;2022-12-01T00:08:56;6.37;97.50
64858;SHT30;51335;51.148;6.950;2022-12-01T00:09:26;6.31;97.61
64858;SHT30;51335;51.148;6.950;2022-12-01T00:09:57;6.40;97.73
64858;SHT30;51335;51.148;6.950;2022-12-01T00:10:27;6.45;97.63
64858;SHT30;51335;51.148;6.950;2022-12-01T00:11:05;6.44;97.34
64858;SHT30;51335;51.148;6.950;2022-12-01T00:11:37;6.51;97.42
64858;SHT30;51335;51.148;6.950;2022-12-01T00:12:07;6.51;97.20
64858;SHT30;51335;51.148;6.950;2022-12-01T00:12:37;6.51;97.06
64858;SHT30;51335;51.148;6.950;2022-12-01T00:13:07;6.51;97.04
64858;SHT30;51335;51.148;6.950;2022-12-01T00:13:38;6.49;97.09
64858;SHT30;51335;51.148;6.950;2022-12-01T00:14:08;6.48;97.16
64858;SHT30;51335;51.148;6.950;2022-12-01T00:14:38;6.45;97.40
64858;SHT30;51335;51.148;6.950;2022-12-01T00:15:09;6.47;97.37
64858;SHT30;51335;51.148;6.950;2022-12-01T00:15:40;6.48;97.30
64858;SHT30;51335;51.148;6.950;2022-12-01T00:16:12;6.42;97.18
64858;SHT30;51335;51.148;6.950;2022-12-01T00:16:43;6.48;97.44
64858;SHT30;51335;51.148;6.950;2022-12-01T00:17:13;6.55;97.30
64858;SHT30;51335;51.148;6.950;2022-12-01T00:17:43;6.61;97.07
64858;SHT30;51335;51.148;6.950;2022-12-01T00:18:13;6.64;96.88
64858;SHT30;51335;51.148;6.950;2022-12-01T00:18:48;6.69;96.71
64858;SHT30;51335;51.148;6.950;2022-12-01T00:19:19;6.67;96.65
64858;SHT30;51335;51.148;6.950;2022-12-01T00:19:53;6.68;96.67
64858;SHT30;51335;51.148;6.950;2022-12-01T00:20:23;6.68;96.71
64858;SHT30;51335;51.148;6.950;2022-12-01T00:20:53;6.61;96.57
64858;SHT30;51335;51.148;6.950;2022-12-01T00:21:25;6.61;96.64
64858;SHT30;51335;51.148;6.950;2022-12-01T00:21:55;6.51;96.66
64858;SHT30;51335;51.148;6.950;2022-12-01T00:22:26;6.48;96.96
64858;SHT30;51335;51.148;6.950;2022-12-01T00:22:56;6.45;96.97
64858;SHT30;51335;51.148;6.950;2022-12-01T00:23:26;6.54;97.28
64858;SHT30;51335;51.148;6.950;2022-12-01T00:23:57;6.52;97.21
64858;SHT30;51335;51.148;6.950;2022-12-01T00:24:27;6.54;97.20
64858;SHT30;51335;51.148;6.950;2022-12-01T00:24:57;6.48;97.11
64858;SHT30;51335;51.148;6.950;2022-12-01T00:25:28;6.40;97.36
64858;SHT30;51335;51.148;6.950;2022-12-01T00:26:03;6.42;97.50
64858;SHT30;51335;51.148;6.950;2022-12-01T00:26:36;6.48;97.46
64858;SHT30;51335;51.148;6.950;2022-12-01T00:27:06;6.49;97.30
64858;SHT30;51335;51.148;6.950;2022-12-01T00:27:36;6.52;97.21
64858;SHT30;51335;51.148;6.950;2022-12-01T00:28:07;6.55;97.12
64858;SHT30;51335;51.148;6.950;2022-12-01T00:28:37;6.42;97.07
64858;SHT30;51335;51.148;6.950;2022-12-01T00:29:08;6.48;97.29
64858;SHT30;51335;51.148;6.950;2022-12-01T00:29:38;6.55;97.29
64858;SHT30;51335;51.148;6.950;2022-12-01T00:30:10;6.55;97.09
64858;SHT30;51335;51.148;6.950;2022-12-01T00:30:41;6.59;97.07
64858;SHT30;51335;51.148;6.950;2022-12-01T00:31:11;6.58;97.11
64858;SHT30;51335;51.148;6.950;2022-12-01T00:31:42;6.61;97.03
64858;SHT30;51335;51.148;6.950;2022-12-01T00:32:12;6.64;97.00
64858;SHT30;51335;51.148;6.950;2022-12-01T00:32:43;6.64;96.93
64858;SHT30;51335;51.148;6.950;2022-12-01T00:33:14;6.64;96.83
64858;SHT30;51335;51.148;6.950;2022-12-01T00:33:44;6.63;96.78
64858;SHT30;51335;51.148;6.950;2022-12-01T00:34:23;6.64;96.81
64858;SHT30;51335;51.148;6.950;2022-12-01T00:34:53;6.59;96.87
64858;SHT30;51335;51.148;6.950;2022-12-01T00:35:24;6.58;96.90
64858;SHT30;51335;51.148;6.950;2022-12-01T00:36:00;6.57;97.05
64858;SHT30;51335;51.148;6.950;2022-12-01T00:36:31;6.57;97.06
64858;SHT30;51335;51.148;6.950;2022-12-01T00:37:01;6.58;97.01
64858;SHT30;51335;51.148;6.950;2022-12-01T00:37:32;6.58;97.18
64858;SHT30;51335;51.148;6.950;2022-12-01T00:38:03;6.58;97.11
64858;SHT30;51335;51.148;6.950;2022-12-01T00:38:33;6.59;97.11
64858;SHT30;51335;51.148;6.950;2022-12-01T00:39:04;6.63;96.91
64858;SHT30;51335;51.148;6.950;2022-12-01T00:39:34;6.65;96.91
64858;SHT30;51335;51.148;6.950;2022-12-01T00:40:05;6.59;96.67
64858;SHT30;51335;51.148;6.950;2022-12-01T00:40:36;6.57;96.82
64858;SHT30;51335;51.148;6.950;2022-12-01T00:41:06;6.57;96.82
64858;SHT30;51335;51.148;6.950;2022-12-01T00:41:37;6.57;96.87
64858;SHT30;51335;51.148;6.950;2022-12-01T00:42:07;6.55;96.82
64858;SHT30;51335;51.148;6.950;2022-12-01T00:42:37;6.57;96.88
64858;SHT30;51335;51.148;6.950;2022-12-01T00:43:07;6.58;96.73
64858;SHT30;51335;51.148;6.950;2022-12-01T00:43:38;6.54;96.73
64858;SHT30;51335;51.148;6.950;2022-12-01T00:44:08;6.54;96.83
64858;SHT30;51335;51.148;6.950;2022-12-01T00:44:38;6.51;96.87
64858;SHT30;51335;51.148;6.950;2022-12-01T00:45:09;6.51;96.87
64858;SHT30;51335;51.148;6.950;2022-12-01T00:45:41;6.52;96.91
64858;SHT30;51335;51.148;6.950;2022-12-01T00:46:12;6.54;96.82
64858;SHT30;51335;51.148;6.950;2022-12-01T00:46:42;6.51;96.82
64858;SHT30;51335;51.148;6.950;2022-12-01T00:47:13;6.48;96.83
64858;SHT30;51335;51.148;6.950;2022-12-01T00:47:43;6.48;96.87
64858;SHT30;51335;51.148;6.950;2022-12-01T00:48:13;6.49;96.98
64858;SHT30;51335;51.148;6.950;2022-12-01T00:48:44;6.44;96.78
64858;SHT30;51335;51.148;6.950;2022-12-01T00:49:14;6.45;97.05
64858;SHT30;51335;51.148;6.950;2022-12-01T00:49:44;6.47;96.93
64858;SHT30;51335;51.148;6.950;2022-12-01T00:50:15;6.47;96.94
64858;SHT30;51335;51.148;6.950;2022-12-01T00:50:46;6.47;96.91
64858;SHT30;51335;51.148;6.950;2022-12-01T00:51:16;6.47;96.93
64858;SHT30;51335;51.148;6.950;2022-12-01T00:51:46;6.51;96.95
64858;SHT30;51335;51.148;6.950;2022-12-01T00:52:18;6.48;96.94
64858;SHT30;51335;51.148;6.950;2022-12-01T00:52:48;6.49;96.98
64858;SHT30;51335;51.148;6.950;2022-12-01T00:53:19;6.52;96.97
64858;SHT30;51335;51.148;6.950;2022-12-01T00:53:49;6.51;96.92
64858;SHT30;51335;51.148;6.950;2022-12-01T00:54:19;6.47;96.60
64858;SHT30;51335;51.148;6.950;2022-12-01T00:54:49;6.48;96.86
64858;SHT30;51335;51.148;6.950;2022-12-01T00:55:20;6.49;96.70
64858;SHT30;51335;51.148;6.950;2022-12-01T00:55:50;6.40;96.53
64858;SHT30;51335;51.148;6.950;2022-12-01T00:56:21;6.47;96.86
64858;SHT30;51335;51.148;6.950;2022-12-01T00:56:51;6.48;96.94
64858;SHT30;51335;51.148;6.950;2022-12-01T00:57:21;6.47;96.83
64858;SHT30;51335;51.148;6.950;2022-12-01T00:57:52;6.48;96.85
64858;SHT30;51335;51.148;6.950;2022-12-01T00:58:23;6.41;96.69
64858;SHT30;51335;51.148;6.950;2022-12-01T00:58:53;6.45;96.99
64858;SHT30;51335;51.148;6.950;2022-12-01T00:59:24;6.51;96.92
64858;SHT30;51335;51.148;6.950;2022-12-01T00:59:54;6.47;96.54
64858;SHT30;51335;51.148;6.950;2022-12-01T01:00:24;6.44;96.69
64858;SHT30;51335;51.148;6.950;2022-12-01T01:00:59;6.38;96.85
64858;SHT30;51335;51.148;6.950;2022-12-01T01:01:29;6.37;97.09
64858;SHT30;51335;51.148;6.950;2022-12-01T01:02:04;6.41;97.21
64858;SHT30;51335;51.148;6.950;2022-12-01T01:02:37;6.45;96.86
64858;SHT30;51335;51.148;6.950;2022-12-01T01:03:09;6.45;96.87
64858;SHT30;51335;51.148;6.950;2022-12-01T01:03:39;6.42;96.82
64858;SHT30;51335;51.148;6.950;2022-12-01T01:04:09;6.51;96.94
64858;SHT30;51335;51.148;6.950;2022-12-01T01:04:40;6.49;96.87
64858;SHT30;51335;51.148;6.950;2022-12-01T01:05:10;6.52;96.83
64858;SHT30;51335;51.148;6.950;2022-12-01T01:05:42;6.44;96.78
64858;SHT30;51335;51.148;6.950;2022-12-01T01:06:13;6.47;96.76
64858;SHT30;51335;51.148;6.950;2022-12-01T01:06:43;6.42;96.83
64858;SHT30;51335;51.148;6.950;2022-12-01T01:07:14;6.47;96.85
64858;SHT30;51335;51.148;6.950;2022-12-01T01:07:44;6.45;96.74
64858;SHT30;51335;51.148;6.950;2022-12-01T01:08:14;6.51;96.71
64858;SHT30;51335;51.148;6.950;2022-12-01T01:08:44;6.48;96.46
64858;SHT30;51335;51.148;6.950;2022-12-01T01:09:15;6.48;96.61
64858;SHT30;51335;51.148;6.950;2022-12-01T01:09:46;6.41;96.67
64858;SHT30;51335;51.148;6.950;2022-12-01T01:10:16;6.42;96.92
64858;SHT30;51335;51.148;6.950;2022-12-01T01:10:47;6.41;96.90
64858;SHT30;51335;51.148;6.950;2022-12-01T01:11:17;6.37;96.82
64858;SHT30;51335;51.148;6.950;2022-12-01T01:11:47;6.38;96.94
64858;SHT30;51335;51.148;6.950;2022-12-01T01:12:18;6.41;96.93
64858;SHT30;51335;51.148;6.950;2022-12-01T01:12:48;6.47;96.85
64858;SHT30;51335;51.148;6.950;2022-12-01T01:13:18;6.45;96.78
64858;SHT30;51335;51.148;6.950;2022-12-01T01:13:49;6.47;96.85
64858;SHT30;51335;51.148;6.950;2022-12-01T01:14:20;6.49;96.80
64858;SHT30;51335;51.148;6.950;2022-12-01T01:14:50;6.51;96.73
64858;SHT30;51335;51.148;6.950;2022-12-01T01:15:20;6.49;96.59
64858;SHT30;51335;51.148;6.950;2022-12-01T01:16:06;6.41;96.43
64858;SHT30;51335;51.148;6.950;2022-12-01T01:16:36;6.33;96.74
64858;SHT30;51335;51.148;6.950;2022-12-01T01:17:07;6.38;96.94
64858;SHT30;51335;51.148;6.950;2022-12-01T01:17:37;6.41;97.00
64858;SHT30;51335;51.148;6.950;2022-12-01T01:18:07;6.42;96.88
64858;SHT30;51335;51.148;6.950;2022-12-01T01:18:39;6.45;96.76
64858;SHT30;51335;51.148;6.950;2022-12-01T01:19:09;6.44;96.79
64858;SHT30;51335;51.148;6.950;2022-12-01T01:19:39;6.48;96.93
64858;SHT30;51335;51.148;6.950;2022-12-01T01:20:10;6.51;96.82
64858;SHT30;51335;51.148;6.950;2022-12-01T01:20:40;6.51;96.65
64858;SHT30;51335;51.148;6.950;2022-12-01T01:21:13;6.49;96.54
64858;SHT30;51335;51.148;6.950;2022-12-01T01:21:44;6.40;96.52
64858;SHT30;51335;51.148;6.950;2022-12-01T01:22:14;6.45;96.80
64858;SHT30;51335;51.148;6.950;2022-12-01T01:22:44;6.44;96.83
64858;SHT30;51335;51.148;6.950;2022-12-01T01:23:14;6.44;96.78
64858;SHT30;51335;51.148;6.950;2022-12-01T01:23:45;6.40;96.75
64858;SHT30;51335;51.148;6.950;2022-12-01T01:24:16;6.38;96.89
64858;SHT30;51335;51.148;6.950;2022-12-01T01:24:46;6.38;96.92
64858;SHT30;51335;51.148;6.950;2022-12-01T01:25:16;6.38;96.96
64858;SHT30;51335;51.148;6.950;2022-12-01T01:25:46;6.40;96.82
64858;SHT30;51335;51.148;6.950;2022-12-01T01:26:20;6.42;96.76
64858;SHT30;51335;51.148;6.950;2022-12-01T01:26:50;6.40;96.82
64858;SHT30;51335;51.148;6.950;2022-12-01T01:27:21;6.40;96.83
64858;SHT30;51335;51.148;6.950;2022-12-01T01:27:51;6.41;96.64
64858;SHT30;51335;51.148;6.950;2022-12-01T01:28:21;6.40;96.73
64858;SHT30;51335;51.148;6.950;2022-12-01T01:28:52;6.40;96.75
64858;SHT30;51335;51.148;6.950;2022-12-01T01:29:22;6.42;96.83
64858;SHT30;51335;51.148;6.950;2022-12-01T01:29:52;6.44;96.76
64858;SHT30;51335;51.148;6.950;2022-12-01T01:30:23;6.45;96.73
64858;SHT30;51335;51.148;6.950;2022-12-01T01:30:53;6.48;96.67
64858;SHT30;51335;51.148;6.950;2022-12-01T01:31:25;6.42;96.70
64858;SHT30;51335;51.148;6.950;2022-12-01T01:31:55;6.42;96.71
64858;SHT30;51335;51.148;6.950;2022-12-01T01:32:26;6.34;96.63
64858;SHT30;51335;51.148;6.950;2022-12-01T01:32:56;6.30;96.88
64858;SHT30;51335;51.148;6.950;2022-12-01T01:33:26;6.33;97.03
64858;SHT30;51335;51.148;6.950;2022-12-01T01:33:57;6.38;97.05
64858;SHT30;51335;51.148;6.950;2022-12-01T01:34:28;6.36;96.96
64858;SHT30;51335;51.148;6.950;2022-12-01T01:34:58;6.40;97.07
64858;SHT30;51335;51.148;6.950;2022-12-01T01:35:29;6.40;96.91
64858;SHT30;51335;51.148;6.950;2022-12-01T01:36:00;6.33;96.90
64858;SHT30;51335;51.148;6.950;2022-12-01T01:36:30;6.33;97.10
64858;SHT30;51335;51.148;6.950;2022-12-01T01:37:01;6.38;97.06
64858;SHT30;51335;51.148;6.950;2022-12-01T01:37:31;6.37;96.92
64858;SHT30;51335;51.148;6.950;2022-12-01T01:38:02;6.41;97.05
64858;SHT30;51335;51.148;6.950;2022-12-01T01:38:33;6.37;96.87
64858;SHT30;51335;51.148;6.950;2022-12-01T01:39:03;6.41;96.91
64858;SHT30;51335;51.148;6.950;2022-12-01T01:39:34;6.47;96.85
64858;SHT30;51335;51.148;6.950;2022-12-01T01:40:06;6.51;96.68
64858;SHT30;51335;51.148;6.950;2022-12-01T01:40:44;6.55;96.46
64858;SHT30;51335;51.148;6.950;2022-12-01T01:41:14;6.58;96.39
64858;SHT30;51335;51.148;6.950;2022-12-01T01:41:45;6.61;96.33
64858;SHT30;51335;51.148;6.950;2022-12-01T01:42:17;6.61;96.36
64858;SHT30;51335;51.148;6.950;2022-12-01T01:42:48;6.51;95.98
64858;SHT30;51335;51.148;6.950;2022-12-01T01:44:45;6.36;96.81
64858;SHT30;51335;51.148;6.950;2022-12-01T01:45:49;6.48;96.93
64858;SHT30;51335;51.148;6.950;2022-12-01T01:46:20;6.49;96.73
64858;SHT30;51335;51.148;6.950;2022-12-01T01:46:50;6.52;96.61
64858;SHT30;51335;51.148;6.950;2022-12-01T01:47:25;6.57;96.46
64858;SHT30;51335;51.148;6.950;2022-12-01T01:47:58;6.58;96.40
64858;SHT30;51335;51.148;6.950;2022-12-01T01:48:29;6.49;96.15
64858;SHT30;51335;51.148;6.950;2022-12-01T01:49:33;6.57;96.54
64858;SHT30;51335;51.148;6.950;2022-12-01T01:50:09;6.57;96.53
64858;SHT30;51335;51.148;6.950;2022-12-01T01:50:41;6.58;96.45
64858;SHT30;51335;51.148;6.950;2022-12-01T01:51:13;6.55;96.38
64858;SHT30;51335;51.148;6.950;2022-12-01T01:51:48;6.49;96.20
64858;SHT30;51335;51.148;6.950;2022-12-01T01:52:19;6.40;96.69
64858;SHT30;51335;51.148;6.950;2022-12-01T01:52:54;6.41;96.86
64858;SHT30;51335;51.148;6.950;2022-12-01T01:53:26;6.49;96.98
64858;SHT30;51335;51.148;6.950;2022-12-01T01:54:04;6.52;96.77
64858;SHT30;51335;51.148;6.950;2022-12-01T01:54:39;6.55;96.68
64858;SHT30;51335;51.148;6.950;2022-12-01T01:55:11;6.57;96.59
64858;SHT30;51335;51.148;6.950;2022-12-01T01:55:42;6.57;96.50
64858;SHT30;51335;51.148;6.950;2022-12-01T01:56:12;6.55;96.50
64858;SHT30;51335;51.148;6.950;2022-12-01T01:56:43;6.57;96.49
64858;SHT30;51335;51.148;6.950;2022-12-01T01:57:22;6.54;96.42
64858;SHT30;51335;51.148;6.950;2022-12-01T01:57:53;6.52;96.47
64858;SHT30;51335;51.148;6.950;2022-12-01T01:58:24;6.55;96.58
64858;SHT30;51335;51.148;6.950;2022-12-01T01:58:55;6.55;96.55
64858;SHT30;51335;51.148;6.950;2022-12-01T01:59:41;6.57;96.34
64858;SHT30;51335;51.148;6.950;2022-12-01T02:00:15;6.52;96.42
64858;SHT30;51335;51.148;6.950;2022-12-01T02:00:46;6.57;96.42
64858;SHT30;51335;51.148;6.950;2022-12-01T02:01:17;6.55;96.39
64858;SHT30;51335;51.148;6.950;2022-12-01T02:01:50;6.54;96.35
64858;SHT30;51335;51.148;6.950;2022-12-01T02:02:24;6.55;96.47
64858;SHT30;51335;51.148;6.950;2022-12-01T02:02:56;6.52;96.43
64858;SHT30;51335;51.148;6.950;2022-12-01T02:03:27;6.58;96.58
64858;SHT30;51335;51.148;6.950;2022-12-01T02:03:58;6.57;96.40
64858;SHT30;51335;51.148;6.950;2022-12-01T02:04:29;6.57;96.38
64858;SHT30;51335;51.148;6.950;2022-12-01T02:05:01;6.54;96.31
64858;SHT30;51335;51.148;6.950;2022-12-01T02:05:33;6.55;96.25
64858;SHT30;51335;51.148;6.950;2022-12-01T02:06:06;6.55;96.28
64858;SHT30;51335;51.148;6.950;2022-12-01T02:06:37;6.54;96.26
64858;SHT30;51335;51.148;6.950;2022-12-01T02:07:08;6.55;96.27
64858;SHT30;51335;51.148;6.950;2022-12-01T02:07:40;6.52;96.24
64858;SHT30;51335;51.148;6.950;2022-12-01T02:08:11;6.52;96.28
64858;SHT30;51335;51.148;6.950;2022-12-01T02:08:42;6.52;96.30
64858;SHT30;51335;51.148;6.950;2022-12-01T02:09:12;6.51;96.34
64858;SHT30;51335;51.148;6.950;2022-12-01T02:09:42;6.54;96.44
64858;SHT30;51335;51.148;6.950;2022-12-01T02:10:14;6.52;96.34
64858;SHT30;51335;51.148;6.950;2022-12-01T02:13:06;6.55;96.59
64858;SHT30;51335;51.148;6.950;2022-12-01T02:14:25;6.49;96.65
64858;SHT30;51335;51.148;6.950;2022-12-01T02:18:19;6.41;96.94
64858;SHT30;51335;51.148;6.950;2022-12-01T02:21:24;6.47;96.97
64858;SHT30;51335;51.148;6.950;2022-12-01T02:22:01;6.51;96.95
64858;SHT30;51335;51.148;6.950;2022-12-01T02:24:49;6.38;96.81
64858;SHT30;51335;51.148;6.950;2022-12-01T02:29:46;6.48;97.11
64858;SHT30;51335;51.148;6.950;2022-12-01T02:30:57;6.51;96.88
64858;SHT30;51335;51.148;6.950;2022-12-01T02:31:33;6.45;96.74
64858;SHT30;51335;51.148;6.950;2022-12-01T02:33:50;6.40;97.46
64858;SHT30;51335;51.148;6.950;2022-12-01T02:35:22;6.41;97.46
64858;SHT30;51335;51.148;6.950;2022-12-01T02:37:12;6.45;97.18
64858;SHT30;51335;51.148;6.950;2022-12-01T02:38:50;6.47;97.16
64858;SHT30;51335;51.148;6.950;2022-12-01T02:39:36;6.47;97.28
64858;SHT30;51335;51.148;6.950;2022-12-01T02:41:50;6.45;97.38
64858;SHT30;51335;51.148;6.950;2022-12-01T02:42:32;6.48;97.43
64858;SHT30;51335;51.148;6.950;2022-12-01T02:43:28;6.45;97.45
64858;SHT30;51335;51.148;6.950;2022-12-01T02:44:37;6.37;97.48
64858;SHT30;51335;51.148;6.950;2022-12-01T02:45:10;6.37;97.63
64858;SHT30;51335;51.148;6.950;2022-12-01T02:45:52;6.40;97.84
64858;SHT30;51335;51.148;6.950;2022-12-01T02:46:29;6.42;97.79
64858;SHT30;51335;51.148;6.950;2022-12-01T02:47:11;6.48;97.61
64858;SHT30;51335;51.148;6.950;2022-12-01T02:47:43;6.51;97.54
64858;SHT30;51335;51.148;6.950;2022-12-01T02:48:30;6.52;97.46
64858;SHT30;51335;51.148;6.950;2022-12-01T02:49:06;6.49;97.50
64858;SHT30;51335;51.148;6.950;2022-12-01T02:49:41;6.49;97.47
64858;SHT30;51335;51.148;6.950;2022-12-01T02:50:13;6.47;97.43
64858;SHT30;51335;51.148;6.950;2022-12-01T02:50:44;6.45;97.30
64858;SHT30;51335;51.148;6.950;2022-12-01T02:51:20;6.44;97.57
64858;SHT30;51335;51.148;6.950;2022-12-01T02:51:53;6.44;97.61
64858;SHT30;51335;51.148;6.950;2022-12-01T02:52:25;6.41;97.61
64858;SHT30;51335;51.148;6.950;2022-12-01T02:52:55;6.33;97.68
64858;SHT30;51335;51.148;6.950;2022-12-01T02:53:26;6.37;97.82
64858;SHT30;51335;51.148;6.950;2022-12-01T02:54:01;6.40;97.97
64858;SHT30;51335;51.148;6.950;2022-12-01T02:54:32;6.45;97.88
64858;SHT30;51335;51.148;6.950;2022-12-01T02:55:03;6.47;97.80
64858;SHT30;51335;51.148;6.950;2022-12-01T02:55:34;6.45;97.70
64858;SHT30;51335;51.148;6.950;2022-12-01T02:56:10;6.47;97.61
64858;SHT30;51335;51.148;6.950;2022-12-01T02:56:43;6.47;97.68
64858;SHT30;51335;51.148;6.950;2022-12-01T02:57:15;6.48;97.68
64858;SHT30;51335;51.148;6.950;2022-12-01T02:57:46;6.48;97.68
64858;SHT30;51335;51.148;6.950;2022-12-01T02:58:16;6.48;97.64
64858;SHT30;51335;51.148;6.950;2022-12-01T02:58:46;6.49;97.63
64858;SHT30;51335;51.148;6.950;2022-12-01T02:59:16;6.45;97.68
64858;SHT30;51335;51.148;6.950;2022-12-01T02:59:51;6.44;97.64
64858;SHT30;51335;51.148;6.950;2022-12-01T03:00:22;6.47;97.73
64858;SHT30;51335;51.148;6.950;2022-12-01T03:04:29;6.24;98.35
64858;SHT30;51335;51.148;6.950;2022-12-01T03:05:17;6.27;98.38
64858;SHT30;51335;51.148;6.950;2022-12-01T03:06:14;6.27;98.13
64858;SHT30;51335;51.148;6.950;2022-12-01T03:08:31;6.23;98.35
64858;SHT30;51335;51.148;6.950;2022-12-01T03:09:19;6.27;98.40
64858;SHT30;51335;51.148;6.950;2022-12-01T03:10:41;6.30;98.31
64858;SHT30;51335;51.148;6.950;2022-12-01T03:10:53;6.31;98.26
64858;SHT30;51335;51.148;6.950;2022-12-01T03:11:34;6.33;98.15
64858;SHT30;51335;51.148;6.950;2022-12-01T03:13:48;6.38;98.22
64858;SHT30;51335;51.148;6.950;2022-12-01T03:14:41;6.40;98.08
64858;SHT30;51335;51.148;6.950;2022-12-01T03:16:07;6.38;97.91
64858;SHT30;51335;51.148;6.950;2022-12-01T03:16:49;6.42;98.01
64858;SHT30;51335;51.148;6.950;2022-12-01T03:17:29;6.44;97.93
64858;SHT30;51335;51.148;6.950;2022-12-01T03:19:05;6.38;97.62
64858;SHT30;51335;51.148;6.950;2022-12-01T03:19:34;6.38;97.88
64858;SHT30;51335;51.148;6.950;2022-12-01T03:20:29;6.44;97.87
64858;SHT30;51335;51.148;6.950;2022-12-01T03:22:04;6.36;98.02
64858;SHT30;51335;51.148;6.950;2022-12-01T03:22:45;6.40;97.88
64858;SHT30;51335;51.148;6.950;2022-12-01T03:23:20;6.30;97.68
64858;SHT30;51335;51.148;6.950;2022-12-01T03:23:55;6.36;97.99
64858;SHT30;51335;51.148;6.950;2022-12-01T03:24:28;6.33;98.06
64858;SHT30;51335;51.148;6.950;2022-12-01T03:25:00;6.37;98.13
64858;SHT30;51335;51.148;6.950;2022-12-01T03:25:32;6.40;98.02
64858;SHT30;51335;51.148;6.950;2022-12-01T03:26:05;6.41;97.92
64858;SHT30;51335;51.148;6.950;2022-12-01T03:26:36;6.38;97.81
64858;SHT30;51335;51.148;6.950;2022-12-01T03:27:10;6.41;97.87
64858;SHT30;51335;51.148;6.950;2022-12-01T03:27:43;6.38;98.02
64858;SHT30;51335;51.148;6.950;2022-12-01T03:28:18;6.40;98.13
64858;SHT30;51335;51.148;6.950;2022-12-01T03:28:54;6.37;98.03
64858;SHT30;51335;51.148;6.950;2022-12-01T03:29:30;6.31;97.91
64858;SHT30;51335;51.148;6.950;2022-12-01T03:30:03;6.33;98.25
64858;SHT30;51335;51.148;6.950;2022-12-01T03:30:35;6.38;98.31
64858;SHT30;51335;51.148;6.950;2022-12-01T03:31:09;6.42;98.00
64858;SHT30;51335;51.148;6.950;2022-12-01T03:31:44;6.37;97.75
64858;SHT30;51335;51.148;6.950;2022-12-01T03:32:24;6.42;97.82
64858;SHT30;51335;51.148;6.950;2022-12-01T03:33:05;6.40;97.41
64858;SHT30;51335;51.148;6.950;2022-12-01T03:33:49;6.41;97.50
64858;SHT30;51335;51.148;6.950;2022-12-01T03:34:42;6.44;97.47
64858;SHT30;51335;51.148;6.950;2022-12-01T03:35:21;6.38;97.54
64858;SHT30;51335;51.148;6.950;2022-12-01T03:36:20;6.38;97.61
64858;SHT30;51335;51.148;6.950;2022-12-01T03:36:54;6.42;97.58
64858;SHT30;51335;51.148;6.950;2022-12-01T03:37:32;6.40;97.53
64858;SHT30;51335;51.148;6.950;2022-12-01T03:38:11;6.26;97.57
64858;SHT30;51335;51.148;6.950;2022-12-01T03:38:47;6.20;97.96
64858;SHT30;51335;51.148;6.950;2022-12-01T03:39:22;6.23;98.07
64858;SHT30;51335;51.148;6.950;2022-12-01T03:39:54;6.23;97.91
64858;SHT30;51335;51.148;6.950;2022-12-01T03:40:28;6.23;97.97
64858;SHT30;51335;51.148;6.950;2022-12-01T03:41:06;6.26;98.08
64858;SHT30;51335;51.148;6.950;2022-12-01T03:41:41;6.24;98.09
64858;SHT30;51335;51.148;6.950;2022-12-01T03:42:17;6.21;97.93
64858;SHT30;51335;51.148;6.950;2022-12-01T03:42:56;6.24;97.92
64858;SHT30;51335;51.148;6.950;2022-12-01T03:43:31;6.21;97.89
64858;SHT30;51335;51.148;6.950;2022-12-01T03:44:07;6.30;97.90
64858;SHT30;51335;51.148;6.950;2022-12-01T03:44:46;6.38;97.57
64858;SHT30;51335;51.148;6.950;2022-12-01T03:45:23;6.44;97.32
64858;SHT30;51335;51.148;6.950;2022-12-01T03:46:28;6.38;96.92
64858;SHT30;51335;51.148;6.950;2022-12-01T03:47:23;6.37;97.03
64858;SHT30;51335;51.148;6.950;2022-12-01T03:47:54;6.33;97.21
64858;SHT30;51335;51.148;6.950;2022-12-01T03:48:24;6.37;97.18
64858;SHT30;51335;51.148;6.950;2022-12-01T03:48:55;6.41;97.06
64858;SHT30;51335;51.148;6.950;2022-12-01T03:49:25;6.40;96.99
64858;SHT30;51335;51.148;6.950;2022-12-01T03:49:56;6.42;97.03
64858;SHT30;51335;51.148;6.950;2022-12-01T03:50:35;6.41;96.94
64858;SHT30;51335;51.148;6.950;2022-12-01T03:51:25;6.45;96.86
64858;SHT30;51335;51.148;6.950;2022-12-01T03:53:51;6.33;97.14
64858;SHT30;51335;51.148;6.950;2022-12-01T03:54:31;6.37;97.22
64858;SHT30;51335;51.148;6.950;2022-12-01T03:55:18;6.30;97.15
64858;SHT30;51335;51.148;6.950;2022-12-01T03:55:54;6.31;97.15
64858;SHT30;51335;51.148;6.950;2022-12-01T03:56:29;6.26;97.48
64858;SHT30;51335;51.148;6.950;2022-12-01T03:57:04;6.33;97.44
64858;SHT30;51335;51.148;6.950;2022-12-01T03:57:45;6.34;97.33
64858;SHT30;51335;51.148;6.950;2022-12-01T03:58:20;6.34;97.22
64858;SHT30;51335;51.148;6.950;2022-12-01T03:58:54;6.36;97.40
64858;SHT30;51335;51.148;6.950;2022-12-01T03:59:26;6.38;97.25
64858;SHT30;51335;51.148;6.950;2022-12-01T03:59:58;6.38;97.16
64858;SHT30;51335;51.148;6.950;2022-12-01T04:00:29;6.42;97.14
64858;SHT30;51335;51.148;6.950;2022-12-01T04:01:03;6.41;97.04
64858;SHT30;51335;51.148;6.950;2022-12-01T04:01:34;6.40;97.08
64858;SHT30;51335;51.148;6.950;2022-12-01T04:02:06;6.34;97.10
64858;SHT30;51335;51.148;6.950;2022-12-01T04:02:36;6.37;97.31
64858;SHT30;51335;51.148;6.950;2022-12-01T04:03:07;6.38;97.29
64858;SHT30;51335;51.148;6.950;2022-12-01T04:03:37;6.38;97.34
64858;SHT30;51335;51.148;6.950;2022-12-01T04:04:10;6.36;97.26
64858;SHT30;51335;51.148;6.950;2022-12-01T04:04:41;6.36;97.26
64858;SHT30;51335;51.148;6.950;2022-12-01T04:05:11;6.40;97.42
64858;SHT30;51335;51.148;6.950;2022-12-01T04:05:42;6.38;97.38
64858;SHT30;51335;51.148;6.950;2022-12-01T04:06:12;6.40;97.39
64858;SHT30;51335;51.148;6.950;2022-12-01T04:06:48;6.38;97.37
64858;SHT30;51335;51.148;6.950;2022-12-01T04:07:20;6.40;97.37
64858;SHT30;51335;51.148;6.950;2022-12-01T04:07:51;6.38;97.40
64858;SHT30;51335;51.148;6.950;2022-12-01T04:08:21;6.37;97.26
64858;SHT30;51335;51.148;6.950;2022-12-01T04:08:51;6.40;97.44
64858;SHT30;51335;51.148;6.950;2022-12-01T04:09:22;6.37;97.48
64858;SHT30;51335;51.148;6.950;2022-12-01T04:09:52;6.34;97.38